sensor_id;sensor_type;location;lat;lon;timestamp;P1;durP1;ratioP1;P2;durP2;ratioP2
14251;SDS011;7210;51.502;10.722;2022-09-09T00:00:36;3.47;;;3.17;;
14251;SDS011;7210;51.502;10.722;2022-09-09T00:03:11;4.17;;;2.90;;
14251;SDS011;7210;51.502;10.722;2022-09-09T00:05:48;3.30;;;3.00;;
14251;SDS011;7210;51.502;10.722;2022-09-09T00:08:28;3.27;;;2.97;;
14251;SDS011;7210;51.502;10.722;2022-09-09T00:11:12;4.43;;;2.90;;
14251;SDS011;7210;51.502;10.722;2022-09-09T00:13:46;3.43;;;2.97;;
14251;SDS011;7210;51.502;10.722;2022-09-09T00:16:19;3.57;;;3.13;;
14251;SDS011;7210;51.502;10.722;2022-09-09T00:18:56;3.43;;;3.00;;
14251;SDS011;7210;51.502;10.722;2022-09-09T00:21:34;4.57;;;2.77;;
14251;SDS011;7210;51.502;10.722;2022-09-09T00:24:08;3.63;;;3.00;;
14251;SDS011;7210;51.502;10.722;2022-09-09T00:26:49;4.03;;;3.10;;
14251;SDS011;7210;51.502;10.722;2022-09-09T00:29:28;2.83;;;2.60;;
14251;SDS011;7210;51.502;10.722;2022-09-09T00:32:13;3.73;;;3.20;;
14251;SDS011;7210;51.502;10.722;2022-09-09T00:34:49;3.40;;;2.70;;
14251;SDS011;7210;51.502;10.722;2022-09-09T00:37:25;5.57;;;3.30;;
14251;SDS011;7210;51.502;10.722;2022-09-09T00:39:57;3.43;;;3.10;;
14251;SDS011;7210;51.502;10.722;2022-09-09T00:42:33;5.23;;;3.10;;
14251;SDS011;7210;51.502;10.722;2022-09-09T00:45:12;5.23;;;2.83;;
14251;SDS011;7210;51.502;10.722;2022-09-09T00:48:06;3.67;;;3.37;;
14251;SDS011;7210;51.502;10.722;2022-09-09T00:50:49;3.70;;;3.00;;
14251;SDS011;7210;51.502;10.722;2022-09-09T00:53:30;3.53;;;2.83;;
14251;SDS011;7210;51.502;10.722;2022-09-09T00:56:13;3.20;;;3.00;;
14251;SDS011;7210;51.502;10.722;2022-09-09T00:58:47;3.30;;;2.97;;
14251;SDS011;7210;51.502;10.722;2022-09-09T01:01:27;4.33;;;2.90;;
14251;SDS011;7210;51.502;10.722;2022-09-09T01:03:54;3.80;;;3.00;;
14251;SDS011;7210;51.502;10.722;2022-09-09T01:06:26;3.77;;;3.00;;
14251;SDS011;7210;51.502;10.722;2022-09-09T01:09:09;2.90;;;2.70;;
14251;SDS011;7210;51.502;10.722;2022-09-09T01:11:52;2.97;;;2.67;;
14251;SDS011;7210;51.502;10.722;2022-09-09T01:14:38;3.23;;;2.70;;
14251;SDS011;7210;51.502;10.722;2022-09-09T01:17:15;4.23;;;2.80;;
14251;SDS011;7210;51.502;10.722;2022-09-09T01:19:56;4.37;;;2.77;;
14251;SDS011;7210;51.502;10.722;2022-09-09T01:22:52;5.33;;;3.03;;
14251;SDS011;7210;51.502;10.722;2022-09-09T01:28:43;3.33;;;2.70;;
14251;SDS011;7210;51.502;10.722;2022-09-09T01:31:26;3.60;;;3.10;;
14251;SDS011;7210;51.502;10.722;2022-09-09T01:33:58;4.20;;;3.23;;
14251;SDS011;7210;51.502;10.722;2022-09-09T01:36:29;4.23;;;2.67;;
14251;SDS011;7210;51.502;10.722;2022-09-09T01:39:05;4.17;;;2.90;;
14251;SDS011;7210;51.502;10.722;2022-09-09T01:41:35;4.70;;;3.07;;
14251;SDS011;7210;51.502;10.722;2022-09-09T01:44:05;6.77;;;2.70;;
14251;SDS011;7210;51.502;10.722;2022-09-09T01:46:37;2.90;;;2.60;;
14251;SDS011;7210;51.502;10.722;2022-09-09T01:49:10;3.10;;;2.80;;
14251;SDS011;7210;51.502;10.722;2022-09-09T01:51:38;3.10;;;2.80;;
14251;SDS011;7210;51.502;10.722;2022-09-09T01:54:11;5.40;;;2.90;;
14251;SDS011;7210;51.502;10.722;2022-09-09T01:56:42;4.97;;;3.47;;
14251;SDS011;7210;51.502;10.722;2022-09-09T01:59:27;5.50;;;2.90;;
14251;SDS011;7210;51.502;10.722;2022-09-09T02:02:19;4.30;;;2.93;;
14251;SDS011;7210;51.502;10.722;2022-09-09T02:05:21;6.83;;;3.10;;
14251;SDS011;7210;51.502;10.722;2022-09-09T02:08:58;3.07;;;2.60;;
14251;SDS011;7210;51.502;10.722;2022-09-09T02:11:32;5.37;;;2.80;;
14251;SDS011;7210;51.502;10.722;2022-09-09T02:14:22;2.80;;;2.60;;
14251;SDS011;7210;51.502;10.722;2022-09-09T02:19:49;4.30;;;2.90;;
14251;SDS011;7210;51.502;10.722;2022-09-09T02:22:36;4.50;;;2.93;;
14251;SDS011;7210;51.502;10.722;2022-09-09T02:25:12;2.63;;;2.43;;
14251;SDS011;7210;51.502;10.722;2022-09-09T02:27:44;3.07;;;2.77;;
14251;SDS011;7210;51.502;10.722;2022-09-09T02:30:18;5.33;;;2.97;;
14251;SDS011;7210;51.502;10.722;2022-09-09T02:32:52;3.97;;;2.50;;
14251;SDS011;7210;51.502;10.722;2022-09-09T02:35:30;3.73;;;2.70;;
14251;SDS011;7210;51.502;10.722;2022-09-09T02:38:04;2.97;;;2.57;;
14251;SDS011;7210;51.502;10.722;2022-09-09T02:40:39;2.97;;;2.67;;
14251;SDS011;7210;51.502;10.722;2022-09-09T02:43:13;3.73;;;2.57;;
14251;SDS011;7210;51.502;10.722;2022-09-09T02:45:47;3.37;;;2.90;;
14251;SDS011;7210;51.502;10.722;2022-09-09T02:48:26;3.03;;;2.60;;
14251;SDS011;7210;51.502;10.722;2022-09-09T02:51:06;6.07;;;2.60;;
14251;SDS011;7210;51.502;10.722;2022-09-09T02:53:43;3.80;;;2.70;;
14251;SDS011;7210;51.502;10.722;2022-09-09T02:56:23;3.47;;;3.17;;
14251;SDS011;7210;51.502;10.722;2022-09-09T02:59:02;3.77;;;3.00;;
14251;SDS011;7210;51.502;10.722;2022-09-09T03:01:38;4.10;;;3.13;;
14251;SDS011;7210;51.502;10.722;2022-09-09T03:04:08;5.23;;;3.20;;
14251;SDS011;7210;51.502;10.722;2022-09-09T03:06:36;4.07;;;3.07;;
14251;SDS011;7210;51.502;10.722;2022-09-09T03:09:14;4.30;;;2.70;;
14251;SDS011;7210;51.502;10.722;2022-09-09T03:11:42;3.53;;;2.73;;
14251;SDS011;7210;51.502;10.722;2022-09-09T03:14:12;4.60;;;2.50;;
14251;SDS011;7210;51.502;10.722;2022-09-09T03:16:41;5.50;;;2.70;;
14251;SDS011;7210;51.502;10.722;2022-09-09T03:19:09;2.80;;;2.50;;
14251;SDS011;7210;51.502;10.722;2022-09-09T03:21:37;4.47;;;3.50;;
14251;SDS011;7210;51.502;10.722;2022-09-09T03:24:04;2.97;;;2.70;;
14251;SDS011;7210;51.502;10.722;2022-09-09T03:26:32;6.83;;;2.90;;
14251;SDS011;7210;51.502;10.722;2022-09-09T03:29:00;4.03;;;3.13;;
14251;SDS011;7210;51.502;10.722;2022-09-09T03:31:29;3.47;;;2.70;;
14251;SDS011;7210;51.502;10.722;2022-09-09T03:33:59;4.53;;;3.07;;
14251;SDS011;7210;51.502;10.722;2022-09-09T03:36:30;5.07;;;3.50;;
14251;SDS011;7210;51.502;10.722;2022-09-09T03:38:57;4.73;;;3.87;;
14251;SDS011;7210;51.502;10.722;2022-09-09T03:41:28;5.23;;;3.37;;
14251;SDS011;7210;51.502;10.722;2022-09-09T03:43:57;4.27;;;3.23;;
14251;SDS011;7210;51.502;10.722;2022-09-09T03:46:27;4.57;;;3.50;;
14251;SDS011;7210;51.502;10.722;2022-09-09T03:48:54;3.50;;;3.20;;
14251;SDS011;7210;51.502;10.722;2022-09-09T03:51:23;4.23;;;3.43;;
14251;SDS011;7210;51.502;10.722;2022-09-09T03:53:51;5.50;;;3.20;;
14251;SDS011;7210;51.502;10.722;2022-09-09T03:56:19;4.37;;;3.50;;
14251;SDS011;7210;51.502;10.722;2022-09-09T03:58:47;5.57;;;3.33;;
14251;SDS011;7210;51.502;10.722;2022-09-09T04:01:14;6.93;;;4.80;;
14251;SDS011;7210;51.502;10.722;2022-09-09T04:03:43;6.33;;;4.10;;
14251;SDS011;7210;51.502;10.722;2022-09-09T04:06:12;7.00;;;4.37;;
14251;SDS011;7210;51.502;10.722;2022-09-09T04:08:44;9.37;;;3.73;;
14251;SDS011;7210;51.502;10.722;2022-09-09T04:11:13;5.73;;;3.67;;
14251;SDS011;7210;51.502;10.722;2022-09-09T04:13:43;6.97;;;3.60;;
14251;SDS011;7210;51.502;10.722;2022-09-09T04:16:12;4.47;;;3.70;;
14251;SDS011;7210;51.502;10.722;2022-09-09T04:18:40;5.23;;;3.77;;
14251;SDS011;7210;51.502;10.722;2022-09-09T04:21:12;5.20;;;3.30;;
14251;SDS011;7210;51.502;10.722;2022-09-09T04:23:41;5.90;;;2.97;;
14251;SDS011;7210;51.502;10.722;2022-09-09T04:26:10;6.57;;;2.83;;
14251;SDS011;7210;51.502;10.722;2022-09-09T04:28:38;4.97;;;2.83;;
14251;SDS011;7210;51.502;10.722;2022-09-09T04:31:14;4.23;;;2.93;;
14251;SDS011;7210;51.502;10.722;2022-09-09T04:33:46;4.23;;;3.07;;
14251;SDS011;7210;51.502;10.722;2022-09-09T04:36:18;3.80;;;2.80;;
14251;SDS011;7210;51.502;10.722;2022-09-09T04:38:48;4.00;;;2.60;;
14251;SDS011;7210;51.502;10.722;2022-09-09T04:41:16;2.97;;;2.77;;
14251;SDS011;7210;51.502;10.722;2022-09-09T04:43:48;4.63;;;2.87;;
14251;SDS011;7210;51.502;10.722;2022-09-09T04:46:24;6.00;;;3.57;;
14251;SDS011;7210;51.502;10.722;2022-09-09T04:48:54;7.17;;;3.27;;
14251;SDS011;7210;51.502;10.722;2022-09-09T04:51:26;5.93;;;2.57;;
14251;SDS011;7210;51.502;10.722;2022-09-09T04:53:53;5.20;;;2.90;;
14251;SDS011;7210;51.502;10.722;2022-09-09T04:56:22;3.13;;;2.73;;
14251;SDS011;7210;51.502;10.722;2022-09-09T04:58:55;5.40;;;3.10;;
14251;SDS011;7210;51.502;10.722;2022-09-09T05:01:38;5.20;;;3.10;;
14251;SDS011;7210;51.502;10.722;2022-09-09T05:04:06;3.53;;;3.23;;
14251;SDS011;7210;51.502;10.722;2022-09-09T05:06:34;5.33;;;3.10;;
14251;SDS011;7210;51.502;10.722;2022-09-09T05:09:03;4.70;;;2.80;;
14251;SDS011;7210;51.502;10.722;2022-09-09T05:11:32;5.23;;;2.80;;
14251;SDS011;7210;51.502;10.722;2022-09-09T05:14:31;3.97;;;2.57;;
14251;SDS011;7210;51.502;10.722;2022-09-09T05:17:00;4.33;;;2.93;;
14251;SDS011;7210;51.502;10.722;2022-09-09T05:19:27;6.17;;;2.70;;
14251;SDS011;7210;51.502;10.722;2022-09-09T05:21:56;3.77;;;2.90;;
14251;SDS011;7210;51.502;10.722;2022-09-09T05:24:31;7.13;;;2.80;;
14251;SDS011;7210;51.502;10.722;2022-09-09T05:27:00;3.80;;;2.70;;
14251;SDS011;7210;51.502;10.722;2022-09-09T05:29:28;3.20;;;2.77;;
14251;SDS011;7210;51.502;10.722;2022-09-09T05:32:00;4.30;;;2.93;;
14251;SDS011;7210;51.502;10.722;2022-09-09T05:34:28;4.77;;;2.87;;
14251;SDS011;7210;51.502;10.722;2022-09-09T05:36:55;5.07;;;3.03;;
14251;SDS011;7210;51.502;10.722;2022-09-09T05:39:24;5.17;;;3.40;;
14251;SDS011;7210;51.502;10.722;2022-09-09T05:41:54;5.13;;;3.50;;
14251;SDS011;7210;51.502;10.722;2022-09-09T05:44:23;3.60;;;3.27;;
14251;SDS011;7210;51.502;10.722;2022-09-09T05:46:53;6.00;;;4.13;;
14251;SDS011;7210;51.502;10.722;2022-09-09T05:49:21;6.93;;;4.03;;
14251;SDS011;7210;51.502;10.722;2022-09-09T05:51:48;9.97;;;3.87;;
14251;SDS011;7210;51.502;10.722;2022-09-09T05:54:18;4.17;;;3.10;;
14251;SDS011;7210;51.502;10.722;2022-09-09T05:56:48;3.63;;;3.00;;
14251;SDS011;7210;51.502;10.722;2022-09-09T05:59:16;5.33;;;3.00;;
14251;SDS011;7210;51.502;10.722;2022-09-09T06:01:45;5.40;;;2.80;;
14251;SDS011;7210;51.502;10.722;2022-09-09T06:04:21;5.33;;;3.17;;
14251;SDS011;7210;51.502;10.722;2022-09-09T06:06:50;5.30;;;2.93;;
14251;SDS011;7210;51.502;10.722;2022-09-09T06:09:19;5.57;;;3.47;;
14251;SDS011;7210;51.502;10.722;2022-09-09T06:11:47;4.57;;;3.10;;
14251;SDS011;7210;51.502;10.722;2022-09-09T06:14:14;4.70;;;2.93;;
14251;SDS011;7210;51.502;10.722;2022-09-09T06:16:47;3.43;;;3.03;;
14251;SDS011;7210;51.502;10.722;2022-09-09T06:19:21;4.63;;;3.00;;
14251;SDS011;7210;51.502;10.722;2022-09-09T06:21:54;5.10;;;3.20;;
14251;SDS011;7210;51.502;10.722;2022-09-09T06:24:21;7.70;;;3.27;;
14251;SDS011;7210;51.502;10.722;2022-09-09T06:26:50;4.37;;;3.47;;
14251;SDS011;7210;51.502;10.722;2022-09-09T06:29:21;3.40;;;2.83;;
14251;SDS011;7210;51.502;10.722;2022-09-09T06:31:51;5.33;;;3.00;;
14251;SDS011;7210;51.502;10.722;2022-09-09T06:34:21;5.50;;;3.20;;
14251;SDS011;7210;51.502;10.722;2022-09-09T06:36:56;3.10;;;2.30;;
14251;SDS011;7210;51.502;10.722;2022-09-09T06:39:27;6.90;;;2.90;;
14251;SDS011;7210;51.502;10.722;2022-09-09T06:41:55;4.70;;;2.97;;
14251;SDS011;7210;51.502;10.722;2022-09-09T06:44:42;5.83;;;3.20;;
14251;SDS011;7210;51.502;10.722;2022-09-09T06:47:16;4.60;;;2.57;;
14251;SDS011;7210;51.502;10.722;2022-09-09T06:49:43;4.40;;;2.90;;
14251;SDS011;7210;51.502;10.722;2022-09-09T06:52:11;5.57;;;3.60;;
14251;SDS011;7210;51.502;10.722;2022-09-09T06:54:38;4.90;;;3.17;;
14251;SDS011;7210;51.502;10.722;2022-09-09T06:57:05;4.13;;;3.10;;
14251;SDS011;7210;51.502;10.722;2022-09-09T06:59:33;5.67;;;3.03;;
14251;SDS011;7210;51.502;10.722;2022-09-09T07:02:02;4.17;;;2.80;;
14251;SDS011;7210;51.502;10.722;2022-09-09T07:04:31;3.73;;;2.77;;
14251;SDS011;7210;51.502;10.722;2022-09-09T07:06:58;4.50;;;2.80;;
14251;SDS011;7210;51.502;10.722;2022-09-09T07:09:26;5.53;;;3.60;;
14251;SDS011;7210;51.502;10.722;2022-09-09T07:11:54;7.37;;;4.10;;
14251;SDS011;7210;51.502;10.722;2022-09-09T07:14:25;6.63;;;4.53;;
14251;SDS011;7210;51.502;10.722;2022-09-09T07:17:02;9.17;;;4.33;;
14251;SDS011;7210;51.502;10.722;2022-09-09T07:19:36;7.23;;;3.53;;
14251;SDS011;7210;51.502;10.722;2022-09-09T07:22:04;8.63;;;3.80;;
14251;SDS011;7210;51.502;10.722;2022-09-09T07:24:33;4.97;;;3.70;;
14251;SDS011;7210;51.502;10.722;2022-09-09T07:27:00;6.23;;;3.37;;
14251;SDS011;7210;51.502;10.722;2022-09-09T07:29:28;3.63;;;2.10;;
14251;SDS011;7210;51.502;10.722;2022-09-09T07:31:56;4.90;;;2.67;;
14251;SDS011;7210;51.502;10.722;2022-09-09T07:34:29;3.63;;;2.10;;
14251;SDS011;7210;51.502;10.722;2022-09-09T07:36:58;3.53;;;1.97;;
14251;SDS011;7210;51.502;10.722;2022-09-09T07:39:25;4.40;;;1.90;;
14251;SDS011;7210;51.502;10.722;2022-09-09T07:41:53;3.17;;;2.07;;
14251;SDS011;7210;51.502;10.722;2022-09-09T07:44:23;3.03;;;1.67;;
14251;SDS011;7210;51.502;10.722;2022-09-09T07:47:00;3.33;;;1.93;;
14251;SDS011;7210;51.502;10.722;2022-09-09T07:49:34;3.87;;;1.90;;
14251;SDS011;7210;51.502;10.722;2022-09-09T07:52:08;2.53;;;1.70;;
14251;SDS011;7210;51.502;10.722;2022-09-09T07:54:40;5.83;;;2.27;;
14251;SDS011;7210;51.502;10.722;2022-09-09T07:57:08;2.80;;;1.80;;
14251;SDS011;7210;51.502;10.722;2022-09-09T07:59:37;3.73;;;1.90;;
14251;SDS011;7210;51.502;10.722;2022-09-09T08:02:04;3.63;;;1.93;;
14251;SDS011;7210;51.502;10.722;2022-09-09T08:04:34;3.30;;;2.00;;
14251;SDS011;7210;51.502;10.722;2022-09-09T08:07:02;3.07;;;1.80;;
14251;SDS011;7210;51.502;10.722;2022-09-09T08:09:35;3.30;;;1.60;;
14251;SDS011;7210;51.502;10.722;2022-09-09T08:12:09;4.00;;;1.90;;
14251;SDS011;7210;51.502;10.722;2022-09-09T08:14:38;5.80;;;1.70;;
14251;SDS011;7210;51.502;10.722;2022-09-09T08:17:05;5.73;;;2.10;;
14251;SDS011;7210;51.502;10.722;2022-09-09T08:19:33;4.70;;;1.70;;
14251;SDS011;7210;51.502;10.722;2022-09-09T08:22:02;1.83;;;1.60;;
14251;SDS011;7210;51.502;10.722;2022-09-09T08:24:31;3.07;;;1.57;;
14251;SDS011;7210;51.502;10.722;2022-09-09T08:27:00;5.00;;;1.83;;
14251;SDS011;7210;51.502;10.722;2022-09-09T08:29:30;5.70;;;2.20;;
14251;SDS011;7210;51.502;10.722;2022-09-09T08:31:58;3.40;;;1.83;;
14251;SDS011;7210;51.502;10.722;2022-09-09T08:34:30;3.07;;;1.37;;
14251;SDS011;7210;51.502;10.722;2022-09-09T08:37:02;2.10;;;1.40;;
14251;SDS011;7210;51.502;10.722;2022-09-09T08:39:34;3.13;;;1.60;;
14251;SDS011;7210;51.502;10.722;2022-09-09T08:45:02;4.63;;;1.80;;
14251;SDS011;7210;51.502;10.722;2022-09-09T08:47:54;3.83;;;1.60;;
14251;SDS011;7210;51.502;10.722;2022-09-09T08:50:41;2.63;;;1.53;;
14251;SDS011;7210;51.502;10.722;2022-09-09T08:53:17;3.97;;;1.83;;
14251;SDS011;7210;51.502;10.722;2022-09-09T08:55:51;3.67;;;2.30;;
14251;SDS011;7210;51.502;10.722;2022-09-09T08:58:47;6.20;;;3.47;;
14251;SDS011;7210;51.502;10.722;2022-09-09T09:01:27;3.30;;;1.80;;
14251;SDS011;7210;51.502;10.722;2022-09-09T09:04:26;3.93;;;1.90;;
14251;SDS011;7210;51.502;10.722;2022-09-09T09:07:15;4.30;;;1.67;;
14251;SDS011;7210;51.502;10.722;2022-09-09T09:09:57;3.10;;;1.50;;
14251;SDS011;7210;51.502;10.722;2022-09-09T09:12:38;3.30;;;1.50;;
14251;SDS011;7210;51.502;10.722;2022-09-09T09:15:14;3.30;;;1.80;;
14251;SDS011;7210;51.502;10.722;2022-09-09T09:17:49;2.33;;;1.40;;
14251;SDS011;7210;51.502;10.722;2022-09-09T09:20:18;2.67;;;2.00;;
14251;SDS011;7210;51.502;10.722;2022-09-09T09:22:56;3.20;;;1.23;;
14251;SDS011;7210;51.502;10.722;2022-09-09T09:25:31;2.40;;;1.43;;
14251;SDS011;7210;51.502;10.722;2022-09-09T09:28:10;4.27;;;1.70;;
14251;SDS011;7210;51.502;10.722;2022-09-09T09:30:48;3.70;;;1.43;;
14251;SDS011;7210;51.502;10.722;2022-09-09T09:33:22;3.90;;;1.70;;
14251;SDS011;7210;51.502;10.722;2022-09-09T09:35:57;4.00;;;1.50;;
14251;SDS011;7210;51.502;10.722;2022-09-09T09:38:26;2.87;;;1.30;;
14251;SDS011;7210;51.502;10.722;2022-09-09T09:40:58;2.30;;;1.30;;
14251;SDS011;7210;51.502;10.722;2022-09-09T09:43:28;5.23;;;1.63;;
14251;SDS011;7210;51.502;10.722;2022-09-09T09:46:01;4.40;;;1.70;;
14251;SDS011;7210;51.502;10.722;2022-09-09T09:48:31;3.90;;;1.60;;
14251;SDS011;7210;51.502;10.722;2022-09-09T09:51:00;3.13;;;1.37;;
14251;SDS011;7210;51.502;10.722;2022-09-09T09:53:37;3.77;;;1.53;;
14251;SDS011;7210;51.502;10.722;2022-09-09T09:56:08;4.47;;;1.83;;
14251;SDS011;7210;51.502;10.722;2022-09-09T09:58:47;3.03;;;1.40;;
14251;SDS011;7210;51.502;10.722;2022-09-09T10:01:25;3.03;;;1.63;;
14251;SDS011;7210;51.502;10.722;2022-09-09T10:03:57;2.73;;;1.43;;
14251;SDS011;7210;51.502;10.722;2022-09-09T10:06:31;2.67;;;1.40;;
14251;SDS011;7210;51.502;10.722;2022-09-09T10:09:01;3.00;;;1.43;;
14251;SDS011;7210;51.502;10.722;2022-09-09T10:11:39;4.17;;;1.37;;
14251;SDS011;7210;51.502;10.722;2022-09-09T10:14:18;2.73;;;1.30;;
14251;SDS011;7210;51.502;10.722;2022-09-09T10:17:00;8.33;;;1.70;;
14251;SDS011;7210;51.502;10.722;2022-09-09T10:19:40;3.80;;;2.03;;
14251;SDS011;7210;51.502;10.722;2022-09-09T10:22:24;6.40;;;2.80;;
14251;SDS011;7210;51.502;10.722;2022-09-09T10:25:02;2.47;;;1.33;;
14251;SDS011;7210;51.502;10.722;2022-09-09T10:28:10;2.73;;;1.13;;
14251;SDS011;7210;51.502;10.722;2022-09-09T10:31:00;4.33;;;1.33;;
14251;SDS011;7210;51.502;10.722;2022-09-09T10:33:51;3.50;;;1.60;;
14251;SDS011;7210;51.502;10.722;2022-09-09T10:36:32;5.37;;;1.60;;
14251;SDS011;7210;51.502;10.722;2022-09-09T10:39:03;4.30;;;1.23;;
14251;SDS011;7210;51.502;10.722;2022-09-09T10:41:44;3.93;;;1.20;;
14251;SDS011;7210;51.502;10.722;2022-09-09T10:47:26;2.67;;;1.10;;
14251;SDS011;7210;51.502;10.722;2022-09-09T10:50:25;2.07;;;1.00;;
14251;SDS011;7210;51.502;10.722;2022-09-09T10:53:14;2.93;;;1.30;;
14251;SDS011;7210;51.502;10.722;2022-09-09T10:55:56;3.60;;;1.40;;
14251;SDS011;7210;51.502;10.722;2022-09-09T10:58:35;6.43;;;1.70;;
14251;SDS011;7210;51.502;10.722;2022-09-09T11:01:10;4.47;;;1.40;;
14251;SDS011;7210;51.502;10.722;2022-09-09T11:03:45;2.83;;;1.07;;
14251;SDS011;7210;51.502;10.722;2022-09-09T11:06:24;3.03;;;1.30;;
14251;SDS011;7210;51.502;10.722;2022-09-09T11:09:00;4.73;;;1.50;;
14251;SDS011;7210;51.502;10.722;2022-09-09T11:11:32;2.93;;;1.40;;
14251;SDS011;7210;51.502;10.722;2022-09-09T11:14:09;2.77;;;1.40;;
14251;SDS011;7210;51.502;10.722;2022-09-09T11:16:45;3.57;;;1.20;;
14251;SDS011;7210;51.502;10.722;2022-09-09T11:19:19;2.67;;;1.30;;
14251;SDS011;7210;51.502;10.722;2022-09-09T11:21:58;1.83;;;1.20;;
14251;SDS011;7210;51.502;10.722;2022-09-09T11:24:30;2.07;;;1.30;;
14251;SDS011;7210;51.502;10.722;2022-09-09T11:27:06;3.17;;;1.43;;
14251;SDS011;7210;51.502;10.722;2022-09-09T11:29:54;4.23;;;1.30;;
14251;SDS011;7210;51.502;10.722;2022-09-09T11:35:53;2.63;;;1.17;;
14251;SDS011;7210;51.502;10.722;2022-09-09T11:38:43;2.53;;;1.20;;
14251;SDS011;7210;51.502;10.722;2022-09-09T11:41:13;2.97;;;1.20;;
14251;SDS011;7210;51.502;10.722;2022-09-09T11:43:42;2.87;;;1.10;;
14251;SDS011;7210;51.502;10.722;2022-09-09T11:46:13;2.83;;;1.20;;
14251;SDS011;7210;51.502;10.722;2022-09-09T11:48:46;2.97;;;1.10;;
14251;SDS011;7210;51.502;10.722;2022-09-09T11:51:27;2.53;;;1.00;;
14251;SDS011;7210;51.502;10.722;2022-09-09T11:53:59;7.63;;;5.87;;
14251;SDS011;7210;51.502;10.722;2022-09-09T11:56:30;3.90;;;1.30;;
14251;SDS011;7210;51.502;10.722;2022-09-09T11:59:00;2.13;;;1.17;;
14251;SDS011;7210;51.502;10.722;2022-09-09T12:01:34;3.10;;;1.10;;
14251;SDS011;7210;51.502;10.722;2022-09-09T12:04:11;3.37;;;1.20;;
14251;SDS011;7210;51.502;10.722;2022-09-09T12:06:54;3.10;;;1.17;;
14251;SDS011;7210;51.502;10.722;2022-09-09T12:09:37;2.73;;;1.20;;
14251;SDS011;7210;51.502;10.722;2022-09-09T12:15:03;3.57;;;1.07;;
14251;SDS011;7210;51.502;10.722;2022-09-09T12:17:54;2.27;;;1.07;;
14251;SDS011;7210;51.502;10.722;2022-09-09T12:20:26;3.10;;;1.10;;
14251;SDS011;7210;51.502;10.722;2022-09-09T12:23:12;2.10;;;1.17;;
14251;SDS011;7210;51.502;10.722;2022-09-09T12:26:10;3.03;;;1.27;;
14251;SDS011;7210;51.502;10.722;2022-09-09T12:29:02;3.07;;;1.10;;
14251;SDS011;7210;51.502;10.722;2022-09-09T12:31:44;2.13;;;1.20;;
14251;SDS011;7210;51.502;10.722;2022-09-09T12:34:25;4.13;;;1.30;;
14251;SDS011;7210;51.502;10.722;2022-09-09T12:37:05;2.20;;;1.17;;
14251;SDS011;7210;51.502;10.722;2022-09-09T12:39:45;2.13;;;1.10;;
14251;SDS011;7210;51.502;10.722;2022-09-09T12:42:21;2.23;;;1.00;;
14251;SDS011;7210;51.502;10.722;2022-09-09T12:44:53;1.60;;;1.10;;
14251;SDS011;7210;51.502;10.722;2022-09-09T12:47:25;1.60;;;0.90;;
14251;SDS011;7210;51.502;10.722;2022-09-09T12:50:03;1.97;;;1.37;;
14251;SDS011;7210;51.502;10.722;2022-09-09T12:52:32;1.98;;;1.10;;
14251;SDS011;7210;51.502;10.722;2022-09-09T12:55:04;1.67;;;1.13;;
14251;SDS011;7210;51.502;10.722;2022-09-09T12:57:36;2.67;;;1.40;;
14251;SDS011;7210;51.502;10.722;2022-09-09T13:00:07;4.75;;;1.30;;
14251;SDS011;7210;51.502;10.722;2022-09-09T13:02:45;3.05;;;1.20;;
14251;SDS011;7210;51.502;10.722;2022-09-09T13:05:18;4.85;;;1.80;;
14251;SDS011;7210;51.502;10.722;2022-09-09T13:07:48;2.73;;;1.20;;
14251;SDS011;7210;51.502;10.722;2022-09-09T13:10:24;3.05;;;1.40;;
14251;SDS011;7210;51.502;10.722;2022-09-09T13:12:57;2.78;;;1.30;;
14251;SDS011;7210;51.502;10.722;2022-09-09T13:15:26;3.00;;;1.30;;
14251;SDS011;7210;51.502;10.722;2022-09-09T13:17:56;3.97;;;1.63;;
14251;SDS011;7210;51.502;10.722;2022-09-09T13:20:27;2.35;;;1.00;;
14251;SDS011;7210;51.502;10.722;2022-09-09T13:22:56;2.03;;;1.07;;
14251;SDS011;7210;51.502;10.722;2022-09-09T13:25:24;4.23;;;1.80;;
14251;SDS011;7210;51.502;10.722;2022-09-09T13:27:57;2.58;;;1.08;;
14251;SDS011;7210;51.502;10.722;2022-09-09T13:30:28;3.60;;;1.20;;
14251;SDS011;7210;51.502;10.722;2022-09-09T13:33:06;2.15;;;1.20;;
14251;SDS011;7210;51.502;10.722;2022-09-09T13:35:49;5.10;;;1.23;;
14251;SDS011;7210;51.502;10.722;2022-09-09T13:38:24;1.80;;;1.00;;
14251;SDS011;7210;51.502;10.722;2022-09-09T13:40:55;2.17;;;1.23;;
14251;SDS011;7210;51.502;10.722;2022-09-09T13:43:25;3.65;;;1.17;;
14251;SDS011;7210;51.502;10.722;2022-09-09T13:45:55;3.00;;;1.37;;
14251;SDS011;7210;51.502;10.722;2022-09-09T13:48:26;3.13;;;1.30;;
14251;SDS011;7210;51.502;10.722;2022-09-09T13:50:55;1.73;;;1.10;;
14251;SDS011;7210;51.502;10.722;2022-09-09T13:53:25;2.90;;;1.17;;
14251;SDS011;7210;51.502;10.722;2022-09-09T13:55:53;3.13;;;1.33;;
14251;SDS011;7210;51.502;10.722;2022-09-09T13:58:22;1.60;;;1.20;;
14251;SDS011;7210;51.502;10.722;2022-09-09T14:00:52;1.87;;;1.03;;
14251;SDS011;7210;51.502;10.722;2022-09-09T14:03:19;2.97;;;1.43;;
14251;SDS011;7210;51.502;10.722;2022-09-09T14:05:48;5.20;;;1.00;;
14251;SDS011;7210;51.502;10.722;2022-09-09T14:08:21;1.48;;;0.95;;
14251;SDS011;7210;51.502;10.722;2022-09-09T14:10:52;3.10;;;1.27;;
14251;SDS011;7210;51.502;10.722;2022-09-09T14:13:24;3.67;;;1.20;;
14251;SDS011;7210;51.502;10.722;2022-09-09T14:15:53;2.63;;;1.13;;
14251;SDS011;7210;51.502;10.722;2022-09-09T14:18:20;4.50;;;1.13;;
14251;SDS011;7210;51.502;10.722;2022-09-09T14:20:48;2.43;;;1.23;;
14251;SDS011;7210;51.502;10.722;2022-09-09T14:23:16;2.37;;;1.00;;
14251;SDS011;7210;51.502;10.722;2022-09-09T14:25:48;3.83;;;1.20;;
14251;SDS011;7210;51.502;10.722;2022-09-09T14:28:16;2.57;;;1.27;;
14251;SDS011;7210;51.502;10.722;2022-09-09T14:30:43;3.23;;;0.97;;
14251;SDS011;7210;51.502;10.722;2022-09-09T14:33:13;2.47;;;1.40;;
14251;SDS011;7210;51.502;10.722;2022-09-09T14:35:42;2.07;;;1.07;;
14251;SDS011;7210;51.502;10.722;2022-09-09T14:38:09;2.60;;;1.00;;
14251;SDS011;7210;51.502;10.722;2022-09-09T14:40:37;4.77;;;3.47;;
14251;SDS011;7210;51.502;10.722;2022-09-09T14:43:05;2.40;;;1.23;;
14251;SDS011;7210;51.502;10.722;2022-09-09T14:45:32;3.47;;;1.30;;
14251;SDS011;7210;51.502;10.722;2022-09-09T14:48:03;6.43;;;5.87;;
14251;SDS011;7210;51.502;10.722;2022-09-09T14:50:32;3.30;;;1.50;;
14251;SDS011;7210;51.502;10.722;2022-09-09T14:53:00;3.07;;;1.17;;
14251;SDS011;7210;51.502;10.722;2022-09-09T14:55:27;5.40;;;1.57;;
14251;SDS011;7210;51.502;10.722;2022-09-09T14:57:54;3.03;;;0.93;;
14251;SDS011;7210;51.502;10.722;2022-09-09T15:00:21;7.33;;;6.17;;
14251;SDS011;7210;51.502;10.722;2022-09-09T15:02:51;5.00;;;1.40;;
14251;SDS011;7210;51.502;10.722;2022-09-09T15:05:19;7.80;;;3.07;;
14251;SDS011;7210;51.502;10.722;2022-09-09T15:07:48;4.80;;;1.87;;
14251;SDS011;7210;51.502;10.722;2022-09-09T15:10:15;2.37;;;1.30;;
14251;SDS011;7210;51.502;10.722;2022-09-09T15:12:43;9.57;;;5.43;;
14251;SDS011;7210;51.502;10.722;2022-09-09T15:15:10;2.47;;;1.10;;
14251;SDS011;7210;51.502;10.722;2022-09-09T15:17:38;2.90;;;1.10;;
14251;SDS011;7210;51.502;10.722;2022-09-09T15:20:06;2.83;;;1.20;;
14251;SDS011;7210;51.502;10.722;2022-09-09T15:22:34;1.10;;;0.80;;
14251;SDS011;7210;51.502;10.722;2022-09-09T15:25:05;1.73;;;0.90;;
14251;SDS011;7210;51.502;10.722;2022-09-09T15:27:33;1.97;;;0.80;;
14251;SDS011;7210;51.502;10.722;2022-09-09T15:30:04;2.77;;;0.90;;
14251;SDS011;7210;51.502;10.722;2022-09-09T15:32:32;2.47;;;1.20;;
14251;SDS011;7210;51.502;10.722;2022-09-09T15:35:00;3.13;;;1.10;;
14251;SDS011;7210;51.502;10.722;2022-09-09T15:37:27;1.27;;;0.70;;
14251;SDS011;7210;51.502;10.722;2022-09-09T15:39:54;1.63;;;0.80;;
14251;SDS011;7210;51.502;10.722;2022-09-09T15:42:25;3.20;;;1.00;;
14251;SDS011;7210;51.502;10.722;2022-09-09T15:44:52;1.90;;;1.00;;